createdAt,value
2019-05-21T00:01:25.503Z,10.30
2019-05-21T00:03:55.168Z,10.20
2019-05-21T00:06:26.365Z,10.20
2019-05-21T00:08:56.201Z,10.20
2019-05-21T00:11:25.460Z,10.20
2019-05-21T00:13:55.135Z,10.10
2019-05-21T00:16:24.325Z,10.00
2019-05-21T00:18:53.521Z,10.00
2019-05-21T00:21:22.628Z,10.00
2019-05-21T00:23:51.788Z,9.90
2019-05-21T00:26:20.985Z,9.90
2019-05-21T00:29:26.148Z,9.90
2019-05-21T00:32:31.492Z,9.90
2019-05-21T00:35:46.188Z,9.80
2019-05-21T00:38:52.210Z,9.80
2019-05-21T00:41:57.616Z,9.80
2019-05-21T00:44:26.723Z,9.80
2019-05-21T00:46:55.841Z,9.80
2019-05-21T00:49:25.023Z,9.80
2019-05-21T00:52:06.474Z,9.70
2019-05-21T00:54:25.086Z,9.80
2019-05-21T00:56:54.316Z,9.80
2019-05-21T00:59:23.413Z,9.80
2019-05-21T01:01:52.532Z,9.80
2019-05-21T01:04:21.728Z,9.80
2019-05-21T01:06:50.822Z,9.80
2019-05-21T01:09:20.021Z,9.90
2019-05-21T01:11:49.207Z,9.80
2019-05-21T01:14:18.321Z,9.90
2019-05-21T01:16:47.545Z,9.90
2019-05-21T01:19:16.628Z,9.90
2019-05-21T01:21:45.742Z,10.00
2019-05-21T01:24:14.941Z,10.00
2019-05-21T01:26:44.049Z,10.00
2019-05-21T01:29:13.201Z,10.00
2019-05-21T01:31:42.808Z,10.00
2019-05-21T01:34:11.921Z,10.00
2019-05-21T01:36:41.149Z,10.10
2019-05-21T01:39:10.241Z,10.10
2019-05-21T01:41:39.363Z,10.00
2019-05-21T01:44:08.487Z,10.10
2019-05-21T01:46:37.606Z,10.10
2019-05-21T01:49:06.804Z,10.10
2019-05-21T01:51:35.909Z,10.10
2019-05-21T01:54:05.284Z,10.10
2019-05-21T01:56:34.391Z,10.10
2019-05-21T01:59:03.826Z,10.10
2019-05-21T02:01:33.035Z,10.20
2019-05-21T02:04:02.289Z,10.20
2019-05-21T02:06:31.453Z,10.30
2019-05-21T02:09:00.624Z,10.30
2019-05-21T02:11:29.771Z,10.30
2019-05-21T02:13:58.877Z,10.40
2019-05-21T02:16:29.223Z,10.40
2019-05-21T02:18:58.336Z,10.40
2019-05-21T02:21:27.562Z,10.40
2019-05-21T02:23:56.755Z,10.40
2019-05-21T02:26:25.893Z,10.40
2019-05-21T02:28:55.121Z,10.40
2019-05-21T02:31:24.251Z,10.40
2019-05-21T02:33:53.334Z,10.40
2019-05-21T02:36:22.463Z,10.40
2019-05-21T02:38:51.642Z,10.40
2019-05-21T02:41:20.829Z,10.40
2019-05-21T02:43:50.030Z,10.30
2019-05-21T02:46:19.221Z,10.30
2019-05-21T02:48:48.420Z,10.30
2019-05-21T02:51:17.546Z,10.30
2019-05-21T02:53:46.636Z,10.30
2019-05-21T02:56:15.846Z,10.30
2019-05-21T02:58:44.981Z,10.30
2019-05-21T03:01:39.364Z,10.30
2019-05-21T03:04:08.550Z,10.30
2019-05-21T03:06:37.769Z,10.30
2019-05-21T03:09:07.331Z,10.20
2019-05-21T03:11:36.443Z,10.20
2019-05-21T03:14:05.548Z,10.20
2019-05-21T03:16:34.723Z,10.30
2019-05-21T03:19:03.838Z,10.20
2019-05-21T03:21:33.032Z,10.20
2019-05-21T03:24:02.225Z,10.20
2019-05-21T03:26:31.385Z,10.20
2019-05-21T03:29:00.620Z,10.30
2019-05-21T03:31:29.717Z,10.20
2019-05-21T03:33:58.889Z,10.20
2019-05-21T03:36:33.291Z,10.20
2019-05-21T03:38:59.333Z,10.20
2019-05-21T03:41:28.533Z,10.20
2019-05-21T03:43:57.659Z,10.20
2019-05-21T03:46:26.869Z,10.10
2019-05-21T03:48:55.988Z,10.10
2019-05-21T03:51:25.137Z,10.10
2019-05-21T03:53:54.233Z,10.10
2019-05-21T03:56:23.373Z,10.20
2019-05-21T03:58:52.584Z,10.10
2019-05-21T04:01:21.687Z,10.10
2019-05-21T04:03:50.928Z,10.10
2019-05-21T04:06:20.080Z,10.10
2019-05-21T04:08:49.289Z,10.10
2019-05-21T04:11:18.385Z,10.10
2019-05-21T04:13:47.585Z,10.10
2019-05-21T04:16:41.587Z,10.00
2019-05-21T04:19:14.470Z,10.10
2019-05-21T04:21:43.705Z,10.10
2019-05-21T04:24:12.974Z,10.10
2019-05-21T04:26:42.129Z,10.10
2019-05-21T04:29:11.370Z,10.10
2019-05-21T04:31:40.572Z,10.10
2019-05-21T04:34:09.713Z,10.10
2019-05-21T04:36:38.804Z,10.00
2019-05-21T04:39:08.274Z,10.10
2019-05-21T04:41:37.491Z,10.10
2019-05-21T04:44:06.744Z,10.10
2019-05-21T04:46:35.937Z,10.10
2019-05-21T04:49:05.291Z,10.00
2019-05-21T04:51:34.479Z,10.00
2019-05-21T04:54:03.618Z,10.00
2019-05-21T04:56:32.726Z,10.10
2019-05-21T04:59:01.861Z,10.00
2019-05-21T05:01:31.130Z,10.10
2019-05-21T05:04:00.325Z,10.10
2019-05-21T05:06:29.637Z,10.00
2019-05-21T05:08:58.820Z,10.10
2019-05-21T05:11:27.954Z,10.00
2019-05-21T05:13:57.142Z,10.10
2019-05-21T05:16:26.238Z,10.00
2019-05-21T05:18:55.461Z,10.10
2019-05-21T05:21:24.597Z,10.00
2019-05-21T05:23:54.077Z,10.00
2019-05-21T05:26:23.273Z,10.10
2019-05-21T05:28:52.441Z,10.10
2019-05-21T05:31:21.609Z,10.10
2019-05-21T05:33:50.873Z,10.10
2019-05-21T05:36:20.096Z,10.10
2019-05-21T05:38:49.300Z,10.10
2019-05-21T05:41:18.517Z,10.10
2019-05-21T05:43:47.860Z,10.10
2019-05-21T05:46:17.223Z,10.10
2019-05-21T05:49:10.157Z,10.10
2019-05-21T05:51:39.441Z,10.10
2019-05-21T05:54:08.590Z,10.10
2019-05-21T05:56:37.800Z,10.10
2019-05-21T05:59:07.097Z,10.10
2019-05-21T06:01:36.376Z,10.10
2019-05-21T06:04:05.474Z,10.10
2019-05-21T06:06:34.789Z,10.10
2019-05-21T06:09:05.783Z,10.10
2019-05-21T06:11:35.006Z,10.10
2019-05-21T06:14:04.206Z,10.10
2019-05-21T06:16:33.341Z,10.10
2019-05-21T06:19:02.496Z,10.10
2019-05-21T06:21:31.710Z,10.10
2019-05-21T06:24:00.924Z,10.10
2019-05-21T06:26:33.128Z,10.20
2019-05-21T06:29:02.252Z,10.10
2019-05-21T06:31:31.478Z,10.10
2019-05-21T06:34:01.653Z,10.10
2019-05-21T06:36:30.845Z,10.20
2019-05-21T06:39:00.017Z,10.10
2019-05-21T06:41:29.292Z,10.10
2019-05-21T06:43:58.456Z,10.10
2019-05-21T06:46:27.589Z,10.10
2019-05-21T06:48:56.820Z,10.10
2019-05-21T06:51:26.089Z,10.10
2019-05-21T06:53:55.335Z,10.10
2019-05-21T06:56:24.464Z,10.10
2019-05-21T06:58:53.716Z,10.10
2019-05-21T07:01:28.895Z,10.10
2019-05-21T07:03:55.140Z,10.10
2019-05-21T07:06:24.443Z,10.10
2019-05-21T07:08:53.613Z,10.10
2019-05-21T07:11:23.024Z,10.10
2019-05-21T07:13:52.179Z,10.10
2019-05-21T07:16:21.457Z,10.00
2019-05-21T07:18:50.677Z,10.00
2019-05-21T07:21:19.868Z,10.10
2019-05-21T07:23:48.968Z,10.10
2019-05-21T07:26:18.130Z,10.10
2019-05-21T07:28:47.328Z,10.10
2019-05-21T07:31:17.539Z,10.10
2019-05-21T07:33:46.984Z,10.10
2019-05-21T07:36:16.148Z,10.00
2019-05-21T07:38:53.559Z,10.00
2019-05-21T07:41:19.906Z,10.00
2019-05-21T07:43:47.046Z,10.10
2019-05-21T07:46:16.356Z,10.10
2019-05-21T07:48:45.546Z,10.10
2019-05-21T07:51:14.757Z,10.10
2019-05-21T07:53:43.895Z,10.20
2019-05-21T07:56:13.025Z,10.10
2019-05-21T07:58:42.145Z,10.10
2019-05-21T08:01:11.261Z,10.20
2019-05-21T08:03:40.448Z,10.20
2019-05-21T08:06:09.580Z,10.20
2019-05-21T08:08:38.677Z,10.20
2019-05-21T08:11:07.809Z,10.20
2019-05-21T08:13:36.996Z,10.20
2019-05-21T08:16:06.117Z,10.30
2019-05-21T08:18:35.208Z,10.30
2019-05-21T08:21:04.383Z,10.20
2019-05-21T08:23:33.481Z,10.30
2019-05-21T08:26:02.600Z,10.30
2019-05-21T08:28:31.880Z,10.30
2019-05-21T08:31:02.393Z,10.30
2019-05-21T08:33:31.725Z,10.30
2019-05-21T08:36:00.926Z,10.30
2019-05-21T08:38:30.155Z,10.30
2019-05-21T08:40:59.323Z,10.40
2019-05-21T08:43:28.553Z,10.30
2019-05-21T08:45:57.658Z,10.30
2019-05-21T08:48:26.766Z,10.30
2019-05-21T08:50:55.951Z,10.30
2019-05-21T08:53:25.097Z,10.40
2019-05-21T08:55:54.301Z,10.30
2019-05-21T08:58:23.405Z,10.30
2019-05-21T09:00:52.673Z,10.40
2019-05-21T09:03:21.856Z,10.40
2019-05-21T09:05:51.080Z,10.40
2019-05-21T09:08:20.304Z,10.40
2019-05-21T09:10:49.532Z,10.40
2019-05-21T09:13:18.690Z,10.50
2019-05-21T09:15:47.832Z,10.50
2019-05-21T09:18:16.988Z,10.60
2019-05-21T09:20:46.316Z,10.60
2019-05-21T09:23:15.408Z,10.70
2019-05-21T09:25:44.517Z,10.70
2019-05-21T09:28:13.615Z,10.70
2019-05-21T09:30:42.744Z,10.70
2019-05-21T09:33:13.065Z,10.80
2019-05-21T09:35:42.160Z,10.80
2019-05-21T09:38:11.272Z,10.80
2019-05-21T09:40:40.486Z,10.80
2019-05-21T09:43:09.604Z,10.80
2019-05-21T09:45:38.830Z,10.90
2019-05-21T09:48:08.084Z,10.80
2019-05-21T09:50:37.167Z,10.70
2019-05-21T09:53:06.291Z,10.80
2019-05-21T09:55:35.500Z,10.80
2019-05-21T09:58:25.719Z,10.80
2019-05-21T10:01:16.604Z,10.80
2019-05-21T10:03:52.245Z,10.80
2019-05-21T10:06:21.540Z,10.90
2019-05-21T10:08:50.648Z,10.90
2019-05-21T10:11:19.746Z,10.90
2019-05-21T10:13:48.992Z,10.90
2019-05-21T10:16:18.114Z,10.80
2019-05-21T10:18:47.269Z,10.90
2019-05-21T10:21:16.432Z,10.90
2019-05-21T10:23:45.649Z,10.80
2019-05-21T10:26:14.912Z,10.90
2019-05-21T10:28:44.033Z,11.00
2019-05-21T10:31:13.276Z,10.90
2019-05-21T10:33:42.393Z,11.00
2019-05-21T10:36:11.588Z,10.90
2019-05-21T10:38:40.739Z,10.90
2019-05-21T10:41:09.878Z,11.00
2019-05-21T10:43:39.021Z,11.00
2019-05-21T10:46:08.161Z,11.10
2019-05-21T10:48:37.264Z,11.20
2019-05-21T10:51:06.392Z,11.20
2019-05-21T10:53:35.485Z,11.20
2019-05-21T10:56:04.716Z,11.30
2019-05-21T10:58:33.840Z,11.40
2019-05-21T11:01:11.828Z,11.30
2019-05-21T11:04:02.964Z,11.40
2019-05-21T11:06:32.160Z,11.50
2019-05-21T11:09:01.279Z,11.40
2019-05-21T11:11:30.491Z,11.60
2019-05-21T11:13:59.628Z,11.50
2019-05-21T11:16:28.810Z,11.60
2019-05-21T11:18:57.928Z,11.70
2019-05-21T11:21:27.040Z,11.60
2019-05-21T11:23:56.389Z,11.60
2019-05-21T11:26:25.748Z,11.80
2019-05-21T11:28:54.959Z,11.80
2019-05-21T11:31:24.144Z,11.80
2019-05-21T11:33:53.376Z,11.90
2019-05-21T11:36:22.555Z,11.80
2019-05-21T11:38:51.824Z,11.80
2019-05-21T11:41:21.013Z,11.70
2019-05-21T11:43:50.137Z,11.80
2019-05-21T11:46:19.329Z,11.70
2019-05-21T11:48:48.408Z,11.80
2019-05-21T11:51:17.553Z,11.90
2019-05-21T11:53:46.749Z,11.80
2019-05-21T11:56:15.896Z,11.90
2019-05-21T11:58:45.026Z,11.80
2019-05-21T12:01:14.234Z,11.90
2019-05-21T12:03:43.471Z,11.90
2019-05-21T12:06:12.708Z,11.90
2019-05-21T12:08:55.604Z,11.70
2019-05-21T12:11:12.701Z,11.70
2019-05-21T12:13:41.879Z,11.80
2019-05-21T12:16:10.998Z,11.80
2019-05-21T12:18:40.145Z,11.80
2019-05-21T12:21:09.301Z,11.80
2019-05-21T12:23:38.503Z,11.80
2019-05-21T12:26:07.723Z,11.90
2019-05-21T12:28:36.864Z,11.90
2019-05-21T12:31:06.048Z,12.00
2019-05-21T12:33:35.343Z,11.90
2019-05-21T12:36:05.013Z,11.90
2019-05-21T12:38:34.247Z,11.90
2019-05-21T12:41:03.417Z,12.00
2019-05-21T12:43:32.514Z,11.80
2019-05-21T12:46:01.630Z,11.80
2019-05-21T12:48:30.840Z,11.70
2019-05-21T12:51:00.063Z,11.70
2019-05-21T12:53:29.249Z,11.60
2019-05-21T12:55:58.437Z,11.50
2019-05-21T12:58:27.556Z,11.50
2019-05-21T13:00:56.718Z,11.50
2019-05-21T13:03:25.954Z,11.50
2019-05-21T13:05:55.139Z,11.50
2019-05-21T13:08:24.285Z,11.50
2019-05-21T13:10:53.511Z,11.50
2019-05-21T13:13:22.707Z,11.60
2019-05-21T13:15:52.026Z,11.60
2019-05-21T13:18:21.290Z,11.60
2019-05-21T13:20:50.522Z,11.60
2019-05-21T13:23:19.698Z,11.60
2019-05-21T13:25:48.818Z,11.60
2019-05-21T13:28:18.065Z,11.50
2019-05-21T13:30:47.345Z,11.60
2019-05-21T13:33:19.346Z,11.50
2019-05-21T13:35:47.396Z,11.60
2019-05-21T13:38:16.577Z,11.60
2019-05-21T13:40:46.375Z,11.50
2019-05-21T13:43:15.492Z,11.50
2019-05-21T13:45:47.870Z,11.60
2019-05-21T13:48:17.069Z,11.60
2019-05-21T13:50:46.236Z,11.50
2019-05-21T13:53:15.496Z,11.50
2019-05-21T13:55:44.990Z,11.40
2019-05-21T13:58:14.122Z,11.40
2019-05-21T14:00:52.917Z,11.40
2019-05-21T14:03:22.280Z,11.30
2019-05-21T14:05:51.440Z,11.40
2019-05-21T14:08:20.631Z,11.30
2019-05-21T14:10:49.906Z,11.30
2019-05-21T14:13:19.052Z,11.30
2019-05-21T14:15:48.264Z,11.40
2019-05-21T14:18:17.535Z,11.30
2019-05-21T14:20:46.648Z,11.20
2019-05-21T14:23:15.975Z,11.30
2019-05-21T14:25:45.189Z,11.30
2019-05-21T14:28:14.413Z,11.30
2019-05-21T14:30:43.595Z,11.30
2019-05-21T14:33:12.836Z,11.20
2019-05-21T14:35:42.011Z,11.30
2019-05-21T14:38:11.227Z,11.20
2019-05-21T14:40:40.427Z,11.20
2019-05-21T14:43:09.717Z,11.20
2019-05-21T14:45:38.916Z,11.20
2019-05-21T14:48:08.009Z,11.20
2019-05-21T14:50:37.163Z,11.20
2019-05-21T14:53:06.337Z,11.20
2019-05-21T14:55:35.460Z,11.10
2019-05-21T14:58:04.671Z,11.10
2019-05-21T15:00:36.443Z,11.10
2019-05-21T15:03:05.692Z,11.10
2019-05-21T15:05:35.140Z,11.10
2019-05-21T15:08:04.724Z,11.10
2019-05-21T15:10:47.194Z,11.10
2019-05-21T15:13:06.241Z,11.00
2019-05-21T15:15:36.068Z,11.10
2019-05-21T15:18:06.418Z,11.00
2019-05-21T15:20:54.580Z,11.00
2019-05-21T15:23:23.777Z,11.00
2019-05-21T15:25:54.670Z,11.10
2019-05-21T15:28:23.900Z,11.10
2019-05-21T15:30:53.113Z,11.10
2019-05-21T15:33:22.260Z,10.90
2019-05-21T15:35:51.510Z,10.90
2019-05-21T15:38:20.694Z,10.90
2019-05-21T15:41:08.369Z,11.00
2019-05-21T15:43:20.761Z,11.00
2019-05-21T15:45:50.005Z,11.00
2019-05-21T15:48:19.132Z,11.00
2019-05-21T15:50:48.363Z,10.90
2019-05-21T15:53:17.604Z,10.90
2019-05-21T15:55:46.795Z,10.90
2019-05-21T15:58:15.928Z,10.90
2019-05-21T16:00:45.104Z,10.70
2019-05-21T16:03:14.519Z,10.80
2019-05-21T16:05:43.619Z,10.70
2019-05-21T16:08:12.815Z,10.70
2019-05-21T16:10:42.021Z,10.70
2019-05-21T16:13:11.213Z,10.80
2019-05-21T16:15:40.409Z,10.70
2019-05-21T16:18:11.093Z,10.70
2019-05-21T16:20:42.441Z,10.70
2019-05-21T16:23:11.160Z,10.70
2019-05-21T16:25:40.370Z,10.70
2019-05-21T16:28:09.617Z,10.70
2019-05-21T16:30:38.897Z,10.70
2019-05-21T16:33:08.080Z,10.70
2019-05-21T16:35:37.292Z,10.60
2019-05-21T16:38:06.420Z,10.60
2019-05-21T16:40:35.582Z,10.50
2019-05-21T16:43:04.762Z,10.50
2019-05-21T16:45:33.878Z,10.50
2019-05-21T16:48:02.982Z,10.40
2019-05-21T16:50:32.201Z,10.40
2019-05-21T16:53:01.372Z,10.30
2019-05-21T16:55:30.626Z,10.30
2019-05-21T16:57:59.746Z,10.40
2019-05-21T17:00:28.969Z,10.40
2019-05-21T17:02:58.230Z,10.30
2019-05-21T17:05:27.483Z,10.40
2019-05-21T17:07:56.804Z,10.30
2019-05-21T17:10:25.934Z,10.20
2019-05-21T17:12:55.131Z,10.30
2019-05-21T17:15:24.325Z,10.20
2019-05-21T17:17:53.639Z,10.10
2019-05-21T17:20:22.980Z,10.10
2019-05-21T17:22:52.167Z,10.10
2019-05-21T17:25:21.374Z,10.10
2019-05-21T17:27:50.547Z,10.20
2019-05-21T17:30:19.797Z,10.10
2019-05-21T17:32:48.925Z,10.10
2019-05-21T17:35:18.099Z,10.10
2019-05-21T17:37:47.280Z,10.10
2019-05-21T17:40:16.507Z,10.00
2019-05-21T17:42:45.753Z,10.10
2019-05-21T17:45:14.856Z,10.10
2019-05-21T17:47:43.994Z,10.10
2019-05-21T17:50:13.244Z,10.20
2019-05-21T17:52:42.365Z,10.10
2019-05-21T17:55:11.525Z,10.10
2019-05-21T17:57:40.640Z,10.10
2019-05-21T18:00:09.909Z,10.10
2019-05-21T18:02:41.103Z,10.10
2019-05-21T18:05:10.312Z,10.10
2019-05-21T18:07:41.079Z,10.10
2019-05-21T18:10:10.812Z,10.10
2019-05-21T18:12:40.026Z,10.10
2019-05-21T18:15:10.177Z,10.10
2019-05-21T18:17:40.149Z,10.10
2019-05-21T18:20:10.611Z,10.10
2019-05-21T18:22:41.818Z,10.10
2019-05-21T18:25:11.977Z,10.20
2019-05-21T18:27:41.241Z,10.20
2019-05-21T18:30:11.748Z,10.20
2019-05-21T18:32:41.224Z,10.10
2019-05-21T18:35:10.400Z,10.30
2019-05-21T18:37:39.704Z,10.30
2019-05-21T18:40:09.254Z,10.50
2019-05-21T18:42:38.440Z,10.40
2019-05-21T18:45:07.572Z,10.40
2019-05-21T18:47:36.834Z,10.40
2019-05-21T18:50:06.276Z,10.40
2019-05-21T18:52:35.469Z,10.40
2019-05-21T18:55:04.947Z,10.30
2019-05-21T18:57:34.120Z,10.40
2019-05-21T19:00:03.406Z,10.40
2019-05-21T19:02:32.581Z,10.40
2019-05-21T19:05:01.697Z,10.40
2019-05-21T19:07:30.934Z,10.40
2019-05-21T19:10:01.046Z,10.60
2019-05-21T19:12:37.938Z,10.50
2019-05-21T19:15:02.210Z,10.60
2019-05-21T19:17:35.677Z,10.40
2019-05-21T19:20:02.605Z,10.40
2019-05-21T19:22:31.831Z,10.40
2019-05-21T19:25:00.921Z,10.30
2019-05-21T19:27:30.256Z,10.30
2019-05-21T19:29:59.349Z,10.30
2019-05-21T19:32:28.549Z,10.30
2019-05-21T19:34:57.749Z,10.30
2019-05-21T19:37:26.896Z,10.40
2019-05-21T19:39:56.016Z,10.30
2019-05-21T19:42:25.305Z,10.30
2019-05-21T19:44:54.412Z,10.30
2019-05-21T19:47:23.649Z,10.30
2019-05-21T19:49:52.761Z,10.30
2019-05-21T19:52:21.881Z,10.30
2019-05-21T19:54:50.997Z,10.30
2019-05-21T19:57:21.789Z,10.30
2019-05-21T19:59:51.015Z,10.30
2019-05-21T20:02:20.217Z,10.30
2019-05-21T20:04:49.421Z,10.30
2019-05-21T20:07:19.793Z,10.30
2019-05-21T20:09:49.092Z,10.30
2019-05-21T20:12:19.225Z,10.30
2019-05-21T20:14:48.368Z,10.30
2019-05-21T20:17:17.715Z,10.30
2019-05-21T20:19:47.542Z,10.30
2019-05-21T20:22:17.652Z,10.20
2019-05-21T20:24:46.757Z,10.20
2019-05-21T20:27:17.063Z,10.30
2019-05-21T20:29:46.289Z,10.30
2019-05-21T20:32:17.008Z,10.20
2019-05-21T20:34:46.221Z,10.30
2019-05-21T20:37:17.548Z,10.30
2019-05-21T20:39:48.488Z,10.30
2019-05-21T20:42:21.222Z,10.30
2019-05-21T20:44:50.591Z,10.20
2019-05-21T20:47:19.729Z,10.30
2019-05-21T20:49:50.804Z,10.20
2019-05-21T20:52:20.194Z,10.20
2019-05-21T20:54:52.016Z,10.20
2019-05-21T20:57:21.112Z,10.20
2019-05-21T20:59:55.294Z,10.20
2019-05-21T21:02:25.805Z,10.20
2019-05-21T21:04:55.169Z,10.20
2019-05-21T21:07:25.228Z,10.20
2019-05-21T21:09:54.847Z,10.10
2019-05-21T21:12:24.502Z,10.20
2019-05-21T21:14:55.895Z,10.20
2019-05-21T21:17:25.596Z,10.20
2019-05-21T21:19:54.773Z,10.20
2019-05-21T21:22:23.993Z,10.20
2019-05-21T21:24:53.304Z,10.20
2019-05-21T21:27:25.143Z,10.20
2019-05-21T21:29:54.542Z,10.20
2019-05-21T21:32:24.308Z,10.20
2019-05-21T21:34:53.629Z,10.20
2019-05-21T21:37:24.434Z,10.20
2019-05-21T21:39:53.953Z,10.20
2019-05-21T21:42:25.319Z,10.20
2019-05-21T21:44:54.656Z,10.20
2019-05-21T21:47:26.011Z,10.20
2019-05-21T21:49:56.132Z,10.20
2019-05-21T21:52:26.392Z,10.20
2019-05-21T21:55:00.638Z,10.20
2019-05-21T21:57:30.584Z,10.20
2019-05-21T22:00:07.388Z,10.20
2019-05-21T22:02:37.689Z,10.20
2019-05-21T22:05:08.178Z,10.20
2019-05-21T22:07:38.707Z,10.20
2019-05-21T22:10:08.329Z,10.20
2019-05-21T22:12:39.170Z,10.20
2019-05-21T22:15:09.029Z,10.20
2019-05-21T22:17:38.174Z,10.10
2019-05-21T22:20:08.441Z,10.20
2019-05-21T22:22:38.157Z,10.20
2019-05-21T22:25:07.304Z,10.10
2019-05-21T22:27:36.559Z,10.10
2019-05-21T22:30:06.319Z,10.10
2019-05-21T22:32:35.484Z,10.10
2019-05-21T22:35:04.912Z,10.00
2019-05-21T22:37:34.659Z,10.10
2019-05-21T22:40:03.857Z,10.10
2019-05-21T22:42:33.641Z,10.10
2019-05-21T22:45:08.526Z,10.10
2019-05-21T22:47:33.793Z,10.10
2019-05-21T22:50:02.965Z,10.00
2019-05-21T22:52:32.076Z,10.00
2019-05-21T22:55:01.183Z,10.10
2019-05-21T22:57:30.293Z,10.00
2019-05-21T22:59:59.469Z,10.00
2019-05-21T23:02:31.068Z,10.00
2019-05-21T23:05:00.279Z,10.00
2019-05-21T23:07:29.504Z,10.00
2019-05-21T23:09:59.227Z,10.00
2019-05-21T23:12:28.580Z,10.10
2019-05-21T23:14:57.685Z,10.10
2019-05-21T23:17:26.793Z,10.10
2019-05-21T23:19:56.936Z,10.10
2019-05-21T23:22:26.219Z,10.10
2019-05-21T23:24:55.541Z,10.00
2019-05-21T23:27:25.473Z,10.00
2019-05-21T23:29:54.622Z,10.00
2019-05-21T23:32:23.733Z,10.00
2019-05-21T23:34:53.525Z,10.10
2019-05-21T23:37:24.286Z,10.00
2019-05-21T23:39:54.444Z,10.00
2019-05-21T23:42:29.668Z,10.00
2019-05-21T23:44:54.805Z,10.00
2019-05-21T23:47:24.516Z,10.10
2019-05-21T23:49:53.707Z,10.00
2019-05-21T23:52:22.906Z,10.00
2019-05-21T23:54:52.096Z,10.00
2019-05-21T23:57:27.189Z,10.10
2019-05-21T23:59:56.852Z,10.10
